Time;durP1;ratioP1;P1;durP2;ratioP2;P2;SDS_P1;SDS_P2;PMS_P1;PMS_P2;Temp;Humidity;BMP_temperature;BMP_pressure;BME280_temperature;BME280_humidity;BME280_pressure;Samples;Min_cycle;Max_cycle;Signal;HPM_P1;HPM_P2
2022/01/30 00:00:52;;;;;;;26.60;6.35;;;6.20;99.90;;;;;;4983271;28;20042;-73
2022/01/30 00:03:17;;;;;;;27.95;5.38;;;6.10;99.90;;;;;;4989330;28;20042;-73
2022/01/30 00:05:43;;;;;;;24.20;5.18;;;5.50;99.90;;;;;;4991595;28;20040;-74
2022/01/30 00:08:09;;;;;;;21.60;4.72;;;5.40;99.90;;;;;;4984616;28;20046;-74
2022/01/30 00:10:38;;;;;;;24.00;5.20;;;5.40;99.90;;;;;;4980957;28;20401;-74
2022/01/30 00:13:06;;;;;;;17.83;3.97;;;5.50;99.90;;;;;;4987042;28;20042;-74
2022/01/30 00:15:45;;;;;;;28.95;4.50;;;5.60;99.90;;;;;;4999158;28;20398;-73
2022/01/30 00:23:34;;;;;;;21.63;3.83;;;5.40;99.90;;;;;;2061147;28;10001945;-74
2022/01/30 00:26:03;;;;;;;19.98;4.13;;;5.60;99.90;;;;;;4983704;28;20049;-74
2022/01/30 00:28:31;;;;;;;27.98;4.32;;;5.60;99.90;;;;;;4970528;28;20502;-74
2022/01/30 00:30:57;;;;;;;32.55;6.57;;;5.60;99.90;;;;;;4968755;28;20124;-74
2022/01/30 00:33:23;;;;;;;24.80;4.93;;;5.70;99.90;;;;;;4989560;28;20069;-74
2022/01/30 00:35:49;;;;;;;25.73;4.38;;;5.80;99.90;;;;;;4986025;28;20437;-74
2022/01/30 00:38:18;;;;;;;27.33;5.38;;;6.20;99.90;;;;;;4973737;28;20179;-74
2022/01/30 00:40:44;;;;;;;26.15;6.65;;;6.20;99.90;;;;;;4988955;28;20378;-74
2022/01/30 00:43:10;;;;;;;29.35;6.70;;;6.00;99.90;;;;;;4979401;28;20044;-73
2022/01/30 00:45:36;;;;;;;31.42;4.80;;;6.10;99.90;;;;;;4967773;28;20030;-73
2022/01/30 00:48:02;;;;;;;18.70;4.53;;;7.00;99.90;;;;;;4989778;28;20038;-74
2022/01/30 00:50:28;;;;;;;21.20;4.78;;;6.10;99.90;;;;;;4986714;28;20401;-73
2022/01/30 00:52:55;;;;;;;19.25;4.07;;;6.20;99.90;;;;;;4974340;28;20121;-73
2022/01/30 00:55:25;;;;;;;36.65;6.57;;;6.20;99.90;;;;;;4974387;28;20397;-74
2022/01/30 00:57:52;;;;;;;16.87;3.83;;;7.00;99.90;;;;;;4977293;28;20045;-74
2022/01/30 01:00:18;;;;;;;23.30;3.97;;;6.30;99.90;;;;;;4974043;28;20030;-73
2022/01/30 01:02:44;;;;;;;19.65;3.75;;;6.30;99.90;;;;;;4974057;28;20089;-74
2022/01/30 01:05:11;;;;;;;22.00;4.97;;;6.30;99.90;;;;;;4990152;28;20041;-74
2022/01/30 01:07:41;;;;;;;21.95;5.50;;;6.20;99.90;;;;;;4998114;28;20056;-74
2022/01/30 01:10:17;;;;;;;20.47;4.73;;;6.40;99.90;;;;;;4991996;28;20088;-74
2022/01/30 01:23:33;;;;;;;18.58;3.88;;;5.70;99.90;;;;;;4983363;28;20120;-74
2022/01/30 01:26:00;;;;;;;13.75;2.60;;;5.90;99.90;;;;;;4993296;28;20492;-74
2022/01/30 01:28:27;;;;;;;15.20;3.88;;;6.40;99.90;;;;;;4992708;28;20088;-74
2022/01/30 01:30:54;;;;;;;22.25;3.72;;;5.60;99.90;;;;;;4993014;28;20038;-74
2022/01/30 01:33:21;;;;;;;20.23;3.22;;;5.60;99.90;;;;;;4994362;28;20120;-74
2022/01/30 01:35:47;;;;;;;10.35;2.65;;;5.70;99.90;;;;;;4989999;28;20046;-74
2022/01/30 01:38:15;;;;;;;26.80;5.75;;;5.60;99.90;;;;;;4990394;28;20034;-74
2022/01/30 01:40:51;;;;;;;13.90;3.70;;;6.50;99.90;;;;;;4988455;28;20118;-74
2022/01/30 01:43:18;;;;;;;19.10;4.22;;;5.50;99.90;;;;;;4992646;28;20034;-74
2022/01/30 01:45:47;;;;;;;30.85;3.72;;;5.70;99.90;;;;;;4993463;28;20044;-74
2022/01/30 01:48:14;;;;;;;18.92;4.20;;;5.60;99.90;;;;;;4992458;28;20502;-74
2022/01/30 01:50:45;;;;;;;20.15;5.00;;;5.60;99.90;;;;;;4976934;28;20041;-74
2022/01/30 01:53:13;;;;;;;10.50;3.28;;;5.70;99.90;;;;;;5003338;28;20128;-75
2022/01/30 01:55:41;;;;;;;23.50;4.05;;;5.80;99.90;;;;;;4990211;28;20045;-75
2022/01/30 01:58:07;;;;;;;26.38;5.38;;;5.80;99.90;;;;;;4993896;28;20041;-74
2022/01/30 02:00:33;;;;;;;24.13;5.57;;;5.70;99.90;;;;;;4990364;28;20049;-74
2022/01/30 02:02:59;;;;;;;33.67;5.20;;;6.00;99.90;;;;;;4991024;28;20352;-74
2022/01/30 02:05:31;;;;;;;25.30;4.88;;;5.60;99.90;;;;;;4993502;28;20030;-74
2022/01/30 02:10:52;;;;;;;34.75;6.78;;;5.50;99.90;;;;;;4992097;28;20544;-74
2022/01/30 02:24:50;;;;;;;30.05;4.65;;;5.40;99.90;;;;;;4988025;28;20049;-74
2022/01/30 02:27:20;;;;;;;22.92;5.18;;;5.30;99.90;;;;;;4989664;28;20464;-74
2022/01/30 02:29:46;;;;;;;32.50;6.32;;;5.30;99.90;;;;;;4992651;28;20049;-74
2022/01/30 02:32:12;;;;;;;26.00;5.25;;;5.40;99.90;;;;;;4988375;28;20062;-73
2022/01/30 02:34:38;;;;;;;24.55;5.93;;;5.40;99.90;;;;;;4990110;28;20045;-74
2022/01/30 02:37:05;;;;;;;28.02;5.22;;;5.50;99.90;;;;;;4975882;28;20061;-73
2022/01/30 02:39:30;;;;;;;26.90;5.88;;;6.30;99.90;;;;;;4990474;28;20034;-73
2022/01/30 02:41:56;;;;;;;22.42;4.07;;;5.60;99.90;;;;;;4991414;28;20125;-72
2022/01/30 02:44:36;;;;;;;30.40;5.90;;;6.40;99.90;;;;;;4987114;28;20136;-73
2022/01/30 02:47:21;;;;;;;20.52;4.43;;;5.50;99.90;;;;;;4993927;28;20461;-73
2022/01/30 02:50:20;;;;;;;34.58;5.07;;;5.60;99.90;;;;;;4440880;28;10001063;-73
2022/01/30 02:52:56;;;;;;;20.92;5.63;;;5.60;99.90;;;;;;2920853;28;10002157;-74
2022/01/30 02:55:22;;;;;;;31.58;5.75;;;5.50;99.90;;;;;;4970543;28;20132;-74
2022/01/30 02:57:48;;;;;;;25.77;4.75;;;5.90;99.90;;;;;;4990131;28;20729;-73
2022/01/30 03:00:14;;;;;;;22.33;5.28;;;5.50;99.90;;;;;;4978700;28;20113;-73
2022/01/30 03:02:40;;;;;;;18.63;4.70;;;5.50;99.90;;;;;;5006559;28;20068;-73
2022/01/30 03:05:06;;;;;;;29.20;7.25;;;5.60;99.90;;;;;;4991783;28;20093;-73
2022/01/30 03:07:32;;;;;;;31.55;5.25;;;5.60;99.90;;;;;;4991913;28;20129;-74
2022/01/30 03:09:58;;;;;;;20.55;4.78;;;5.70;99.90;;;;;;4989712;28;20046;-74
2022/01/30 03:12:24;;;;;;;23.73;6.35;;;5.70;99.90;;;;;;4975395;28;20060;-74
2022/01/30 03:14:50;;;;;;;28.75;6.07;;;;;;;;;;4987375;28;20042;-74
2022/01/30 03:17:16;;;;;;;27.63;5.30;;;5.60;99.90;;;;;;4993325;28;20049;-74
2022/01/30 03:19:42;;;;;;;25.85;6.72;;;5.70;99.90;;;;;;4986083;28;20034;-73
2022/01/30 03:22:08;;;;;;;23.60;5.55;;;5.70;99.90;;;;;;5007230;28;20037;-74
2022/01/30 03:24:36;;;;;;;26.60;6.13;;;5.70;99.90;;;;;;4987090;28;20082;-74
2022/01/30 03:27:03;;;;;;;27.08;6.78;;;5.70;99.90;;;;;;4990625;28;20050;-75
2022/01/30 03:29:29;;;;;;;26.55;6.45;;;5.60;99.90;;;;;;5006803;28;20045;-74
2022/01/30 03:31:55;;;;;;;40.45;6.45;;;5.60;99.90;;;;;;4986870;28;20054;-75
2022/01/30 03:34:21;;;;;;;26.42;5.82;;;5.60;99.90;;;;;;4989188;28;20508;-74
2022/01/30 03:36:46;;;;;;;31.25;5.60;;;6.50;99.90;;;;;;4973237;28;20124;-74
2022/01/30 03:39:12;;;;;;;34.40;7.57;;;5.70;99.90;;;;;;4985355;28;20038;-74
2022/01/30 03:41:38;;;;;;;29.02;5.72;;;5.70;99.90;;;;;;4986515;28;20100;-74
2022/01/30 03:44:04;;;;;;;33.90;7.65;;;5.60;99.90;;;;;;4971936;28;20458;-74
2022/01/30 03:46:29;;;;;;;32.45;8.40;;;5.80;99.90;;;;;;4974932;28;20042;-74
2022/01/30 03:48:55;;;;;;;24.65;5.97;;;5.70;99.90;;;;;;4971904;28;20069;-74
2022/01/30 03:51:21;;;;;;;39.55;5.80;;;5.70;99.90;;;;;;4987207;28;20050;-74
2022/01/30 03:53:46;;;;;;;38.15;7.10;;;5.90;99.90;;;;;;4989826;28;20046;-73
2022/01/30 03:56:12;;;;;;;36.80;6.32;;;6.30;99.90;;;;;;4984291;28;20423;-74
2022/01/30 03:58:38;;;;;;;31.17;6.13;;;6.10;99.90;;;;;;4964871;28;20042;-74
2022/01/30 04:01:05;;;;;;;25.50;7.10;;;5.90;99.90;;;;;;4965745;28;21601;-74
2022/01/30 04:03:30;;;;;;;26.67;5.65;;;6.50;99.90;;;;;;4989683;28;20048;-74
2022/01/30 04:05:56;;;;;;;32.47;7.22;;;5.80;99.90;;;;;;4996481;28;20101;-74
2022/01/30 04:08:22;;;;;;;29.73;6.20;;;6.00;99.90;;;;;;5016020;28;20040;-74
2022/01/30 04:10:48;;;;;;;38.92;6.97;;;6.00;99.90;;;;;;5011125;28;20038;-74
2022/01/30 04:13:14;;;;;;;31.40;6.50;;;6.10;99.90;;;;;;4995328;28;20044;-74
2022/01/30 04:15:40;;;;;;;35.45;7.22;;;6.10;99.90;;;;;;4995275;28;20386;-73
2022/01/30 04:18:06;;;;;;;37.88;8.13;;;6.10;99.90;;;;;;4976808;28;20040;-74
2022/01/30 04:20:32;;;;;;;29.15;6.13;;;6.10;99.90;;;;;;4994947;28;20510;-74
2022/01/30 04:22:57;;;;;;;32.58;7.10;;;6.00;99.90;;;;;;4976067;28;20402;-73
2022/01/30 04:25:24;;;;;;;30.20;7.43;;;6.20;99.90;;;;;;4994590;28;20042;-73
2022/01/30 04:27:50;;;;;;;35.47;6.47;;;5.90;99.90;;;;;;4991183;28;20118;-73
2022/01/30 04:30:16;;;;;;;31.90;6.90;;;5.70;99.90;;;;;;4979333;28;20041;-73
2022/01/30 04:32:44;;;;;;;35.42;7.90;;;5.80;99.90;;;;;;4990623;28;20050;-73
2022/01/30 04:35:15;;;;;;;37.42;7.97;;;5.70;99.90;;;;;;4981818;28;20130;-73
2022/01/30 04:37:58;;;;;;;34.38;6.35;;;5.60;99.90;;;;;;4977064;28;20041;-74
2022/01/30 05:02:24;;;;;;;34.90;7.53;;;5.90;99.90;;;;;;4987205;28;20516;-74
2022/01/30 05:09:50;;;;;;;35.67;6.88;;;5.70;99.90;;;;;;4991918;28;20125;-74
2022/01/30 05:12:16;;;;;;;29.08;7.00;;;6.60;99.90;;;;;;4990596;28;20103;-74
2022/01/30 05:14:42;;;;;;;40.30;9.27;;;5.60;99.90;;;;;;4987450;28;20034;-74
2022/01/30 05:17:08;;;;;;;35.75;7.13;;;5.70;99.90;;;;;;4971665;28;20038;-74
2022/01/30 05:19:34;;;;;;;35.58;9.27;;;5.80;99.90;;;;;;4987688;28;20096;-75
2022/01/30 05:22:01;;;;;;;46.15;10.18;;;5.80;99.90;;;;;;4991500;28;20126;-74
2022/01/30 05:24:27;;;;;;;38.47;8.68;;;5.70;99.90;;;;;;5003521;28;20042;-74
2022/01/30 05:26:53;;;;;;;33.83;6.97;;;5.80;99.90;;;;;;4983282;28;20415;-74
2022/01/30 05:29:18;;;;;;;39.28;8.10;;;5.80;99.90;;;;;;4971866;28;20045;-75
2022/01/30 05:31:45;;;;;;;35.72;6.57;;;5.80;99.90;;;;;;4986239;28;20049;-75
2022/01/30 05:34:11;;;;;;;35.58;7.88;;;5.80;99.90;;;;;;4988471;28;20056;-74
2022/01/30 05:36:40;;;;;;;40.75;8.77;;;5.80;99.90;;;;;;4990321;28;20065;-73
2022/01/30 05:39:07;;;;;;;35.05;9.25;;;5.80;99.90;;;;;;4995863;28;20049;-74
2022/01/30 05:41:33;;;;;;;37.53;8.45;;;6.10;99.90;;;;;;4985995;28;20402;-74
2022/01/30 05:44:08;;;;;;;40.10;7.43;;;5.70;99.90;;;;;;4969611;28;20057;-74
2022/01/30 05:46:41;;;;;;;37.60;8.48;;;5.70;99.90;;;;;;4977316;28;20099;-74
2022/01/30 05:49:09;;;;;;;28.23;6.38;;;5.60;99.90;;;;;;4991716;28;20076;-74
2022/01/30 05:51:35;;;;;;;46.85;7.50;;;5.50;99.90;;;;;;4993468;28;20052;-75
2022/01/30 05:54:01;;;;;;;24.17;6.35;;;5.90;99.90;;;;;;4993073;28;20046;-74
2022/01/30 05:56:26;;;;;;;32.10;6.80;;;6.10;99.90;;;;;;4988990;28;20104;-74
2022/01/30 05:58:52;;;;;;;33.85;7.75;;;5.60;99.90;;;;;;4991720;28;20049;-74
2022/01/30 06:01:18;;;;;;;38.33;7.82;;;5.50;99.90;;;;;;4996332;28;20120;-75
2022/01/30 06:03:44;;;;;;;46.85;8.27;;;5.70;99.90;;;;;;4975395;28;20041;-74
2022/01/30 06:06:10;;;;;;;37.70;8.05;;;5.80;99.90;;;;;;4993700;28;20441;-74
2022/01/30 06:08:45;;;;;;;43.80;8.00;;;5.90;99.90;;;;;;4991699;28;20042;-74
2022/01/30 06:11:12;;;;;;;35.50;6.22;;;5.70;99.90;;;;;;4992409;28;20506;-74
2022/01/30 06:13:38;;;;;;;45.95;8.63;;;6.10;99.90;;;;;;4989089;28;20045;-73
2022/01/30 06:16:04;;;;;;;38.55;6.63;;;5.90;99.90;;;;;;4992720;28;20038;-73
2022/01/30 06:18:30;;;;;;;33.97;8.75;;;5.70;99.90;;;;;;5006233;28;20053;-73
2022/01/30 06:20:56;;;;;;;32.15;8.45;;;5.50;99.90;;;;;;4994930;28;20045;-73
2022/01/30 06:23:26;;;;;;;33.83;7.00;;;5.70;99.90;;;;;;4974272;28;20042;-74
2022/01/30 06:25:53;;;;;;;34.17;7.55;;;5.90;99.90;;;;;;4991209;28;20037;-74
2022/01/30 06:28:19;;;;;;;48.55;10.63;;;5.60;99.90;;;;;;4988169;28;20053;-74
2022/01/30 06:30:44;;;;;;;36.67;8.27;;;6.30;99.90;;;;;;4993212;28;20038;-74
2022/01/30 06:33:10;;;;;;;49.80;8.90;;;5.50;99.90;;;;;;4991489;28;20406;-74
2022/01/30 06:35:36;;;;;;;41.47;8.50;;;5.30;99.90;;;;;;4986556;28;20057;-75
2022/01/30 06:38:02;;;;;;;46.58;7.72;;;5.50;99.90;;;;;;4985979;28;20578;-74
2022/01/30 06:40:28;;;;;;;40.20;10.32;;;6.00;99.90;;;;;;4985791;28;20042;-75
2022/01/30 06:42:54;;;;;;;36.03;6.85;;;5.60;99.90;;;;;;4984836;28;20517;-75
2022/01/30 06:45:20;;;;;;;41.83;9.00;;;5.60;99.90;;;;;;4991748;28;20140;-75
2022/01/30 06:47:47;;;;;;;44.63;9.35;;;5.60;99.90;;;;;;4967876;28;20180;-75
2022/01/30 06:50:13;;;;;;;45.65;9.00;;;5.50;99.90;;;;;;4991497;28;20123;-75
2022/01/30 06:52:39;;;;;;;35.78;8.10;;;5.40;99.90;;;;;;4992095;28;20172;-75
2022/01/30 06:55:06;;;;;;;41.35;8.60;;;6.60;99.90;;;;;;4981564;28;20103;-75
2022/01/30 06:57:32;;;;;;;46.33;12.63;;;5.50;99.90;;;;;;4988205;28;20049;-75
2022/01/30 06:59:58;;;;;;;43.38;7.75;;;5.40;99.90;;;;;;4988630;28;20053;-75
2022/01/30 07:02:24;;;;;;;39.42;8.02;;;5.90;99.90;;;;;;4993859;28;20026;-75
2022/01/30 07:04:49;;;;;;;37.72;8.93;;;5.50;99.90;;;;;;4988293;28;20045;-75
2022/01/30 07:07:16;;;;;;;34.05;7.43;;;5.50;99.90;;;;;;5004005;28;20048;-75
2022/01/30 07:09:42;;;;;;;39.97;7.63;;;5.60;99.90;;;;;;4991296;28;20060;-75
2022/01/30 07:12:08;;;;;;;40.53;7.90;;;5.60;99.90;;;;;;4975793;28;20041;-75
2022/01/30 07:14:33;;;;;;;46.42;9.32;;;5.70;99.90;;;;;;4987790;28;20052;-75
2022/01/30 07:16:59;;;;;;;32.72;7.85;;;5.80;99.90;;;;;;4988615;28;20042;-74
2022/01/30 07:19:25;;;;;;;35.60;8.35;;;5.70;99.90;;;;;;4988624;28;20389;-74
2022/01/30 07:21:52;;;;;;;36.45;9.48;;;5.70;99.90;;;;;;4987928;28;20042;-74
2022/01/30 07:24:17;;;;;;;41.33;7.35;;;5.60;99.90;;;;;;4990824;28;20050;-74
2022/01/30 07:26:43;;;;;;;38.42;8.65;;;5.90;99.90;;;;;;4987479;28;20718;-75
2022/01/30 07:29:09;;;;;;;38.05;7.75;;;5.90;99.90;;;;;;4983700;28;20394;-74
2022/01/30 07:31:35;;;;;;;40.65;10.23;;;6.10;99.90;;;;;;4983400;28;20184;-73
2022/01/30 07:34:01;;;;;;;37.92;8.68;;;5.70;99.90;;;;;;4990109;28;20041;-73
2022/01/30 07:36:28;;;;;;;34.72;8.25;;;5.80;99.90;;;;;;4983491;28;20114;-74
2022/01/30 07:38:54;;;;;;;46.25;9.15;;;5.80;99.90;;;;;;4988842;28;20038;-75
2022/01/30 07:41:21;;;;;;;44.83;8.30;;;6.40;99.90;;;;;;4971936;28;20048;-73
2022/01/30 07:43:47;;;;;;;43.38;9.18;;;6.00;99.90;;;;;;4984786;28;20084;-74
2022/01/30 07:46:13;;;;;;;51.53;9.48;;;6.20;99.90;;;;;;4973711;28;20073;-74
2022/01/30 07:48:39;;;;;;;37.97;8.82;;;5.80;99.90;;;;;;4971918;28;20033;-74
2022/01/30 07:51:05;;;;;;;35.63;7.65;;;5.80;99.90;;;;;;5002977;28;20046;-73
2022/01/30 07:53:31;;;;;;;34.67;6.93;;;5.60;99.90;;;;;;4985994;28;20045;-73
2022/01/30 07:55:57;;;;;;;46.78;8.55;;;5.70;99.90;;;;;;4979237;28;20136;-73
2022/01/30 07:58:23;;;;;;;36.10;8.10;;;5.90;99.90;;;;;;4990781;28;20132;-73
2022/01/30 08:00:49;;;;;;;37.47;7.70;;;6.00;99.90;;;;;;4966436;28;20421;-73
2022/01/30 08:03:15;;;;;;;29.25;6.78;;;5.90;99.90;;;;;;4980033;28;20042;-74
2022/01/30 08:05:41;;;;;;;29.77;7.38;;;6.00;99.90;;;;;;4965135;28;20104;-73
2022/01/30 08:08:07;;;;;;;39.65;6.40;;;5.70;99.90;;;;;;4983226;28;20045;-74
2022/01/30 08:10:34;;;;;;;23.40;6.82;;;6.20;99.90;;;;;;4985602;28;20076;-74
2022/01/30 08:12:59;;;;;;;33.78;6.78;;;5.80;99.90;;;;;;4990907;28;20125;-73
2022/01/30 08:15:25;;;;;;;28.70;6.13;;;6.50;99.90;;;;;;4990681;28;20128;-73
2022/01/30 08:17:51;;;;;;;37.83;6.97;;;5.80;99.90;;;;;;4987766;28;20041;-73
2022/01/30 08:20:18;;;;;;;28.70;6.68;;;6.10;99.90;;;;;;4985941;28;20037;-72
2022/01/30 08:23:08;;;;;;;24.17;5.35;;;6.10;99.90;;;;;;5002048;28;20042;-72
2022/01/30 08:25:33;;;;;;;30.00;7.15;;;6.20;99.90;;;;;;4987914;28;20060;-73
2022/01/30 08:27:59;;;;;;;27.42;6.75;;;6.30;99.90;;;;;;4998300;28;20617;-73
2022/01/30 08:30:27;;;;;;;27.50;6.22;;;5.90;99.90;;;;;;4994142;28;20045;-73
2022/01/30 08:32:52;;;;;;;33.03;6.85;;;5.80;99.90;;;;;;4998059;28;20097;-73
2022/01/30 08:35:19;;;;;;;28.35;6.47;;;6.70;99.90;;;;;;4986649;28;20125;-73
2022/01/30 08:37:45;;;;;;;32.80;7.15;;;6.20;99.90;;;;;;4915658;28;20715;-73
2022/01/30 08:40:19;;;;;;;35.20;7.78;;;5.80;99.90;;;;;;179613;28;10022911;-76
2022/01/30 08:42:46;;;;;;;31.90;6.80;;;5.90;99.90;;;;;;4824704;28;5001978;-74
2022/01/30 08:45:14;;;;;;;32.78;7.03;;;6.70;99.90;;;;;;4987251;28;20453;-73
2022/01/30 08:47:41;;;;;;;41.88;9.75;;;6.20;99.90;;;;;;4968196;28;20105;-74
2022/01/30 08:50:09;;;;;;;36.50;7.60;;;5.90;99.90;;;;;;4985057;28;20042;-75
2022/01/30 08:52:35;;;;;;;37.42;7.15;;;5.90;99.90;;;;;;4985821;28;20034;-74
2022/01/30 08:55:06;;;;;;;32.00;6.85;;;6.00;99.90;;;;;;4984287;28;20049;-72
2022/01/30 08:57:32;;;;;;;37.35;7.57;;;5.80;99.90;;;;;;4988419;28;20044;-73
2022/01/30 08:59:58;;;;;;;37.53;8.07;;;5.80;99.90;;;;;;4967806;28;20070;-74
2022/01/30 09:02:24;;;;;;;40.03;7.93;;;5.90;99.90;;;;;;4983029;28;20480;-74
2022/01/30 09:04:50;;;;;;;32.30;7.90;;;6.10;99.90;;;;;;4988501;28;20180;-74
2022/01/30 09:07:17;;;;;;;28.45;6.70;;;6.90;99.90;;;;;;4986776;28;20133;-74
2022/01/30 09:09:43;;;;;;;35.63;9.07;;;6.50;99.90;;;;;;4988680;28;20135;-74
2022/01/30 09:12:09;;;;;;;35.33;7.63;;;6.30;99.90;;;;;;5001124;28;20072;-74
2022/01/30 09:14:38;;;;;;;27.80;7.15;;;6.30;99.90;;;;;;4979479;28;20065;-74
2022/01/30 09:17:11;;;;;;;34.22;8.43;;;6.20;99.90;;;;;;4989686;28;20085;-74
2022/01/30 09:19:38;;;;;;;34.55;9.25;;;6.20;99.90;;;;;;4994066;28;20046;-74
2022/01/30 09:22:04;;;;;;;41.05;9.32;;;6.20;99.90;;;;;;4994458;28;20339;-74
2022/01/30 09:24:30;;;;;;;38.50;7.20;;;6.40;99.90;;;;;;5009600;28;20042;-74
2022/01/30 09:26:56;;;;;;;29.45;7.90;;;6.40;99.90;;;;;;4989635;28;20104;-75
2022/01/30 09:29:22;;;;;;;34.75;8.07;;;6.20;99.90;;;;;;4989621;28;20045;-75
2022/01/30 09:31:49;;;;;;;39.78;8.82;;;6.60;99.90;;;;;;4988313;28;20050;-74
2022/01/30 09:34:15;;;;;;;31.65;7.45;;;6.50;99.90;;;;;;4988705;28;20100;-74
2022/01/30 09:36:40;;;;;;;39.75;8.07;;;6.80;99.90;;;;;;4969774;28;20034;-73
2022/01/30 09:39:06;;;;;;;37.28;8.25;;;6.90;99.90;;;;;;4975482;28;20422;-73
2022/01/30 09:41:48;;;;;;;45.03;8.77;;;6.90;99.90;;;;;;2760944;28;10002327;-72
2022/01/30 09:44:14;;;;;;;33.72;8.32;;;6.80;99.90;;;;;;2747115;28;10001548;-74
2022/01/30 09:46:40;;;;;;;37.70;8.45;;;7.00;99.90;;;;;;4973762;28;20120;-73
2022/01/30 09:49:10;;;;;;;35.05;6.35;;;6.50;99.90;;;;;;4973857;28;20136;-73
2022/01/30 09:51:42;;;;;;;37.15;8.35;;;6.40;99.90;;;;;;4991418;28;20140;-75
2022/01/30 09:54:09;;;;;;;33.95;8.45;;;6.50;99.90;;;;;;4992031;28;20045;-73
2022/01/30 09:56:35;;;;;;;28.00;7.63;;;6.50;99.90;;;;;;4992330;28;20038;-73
2022/01/30 09:59:02;;;;;;;35.75;7.28;;;6.70;99.90;;;;;;4992073;28;20029;-73
2022/01/30 10:01:30;;;;;;;28.20;6.45;;;6.50;99.90;;;;;;4991240;28;20038;-73
2022/01/30 10:03:56;;;;;;;23.92;4.90;;;7.40;99.90;;;;;;4990509;28;20564;-73
2022/01/30 10:06:25;;;;;;;31.67;7.75;;;7.40;99.90;;;;;;4974586;28;20045;-73
2022/01/30 10:08:55;;;;;;;30.15;6.80;;;6.70;99.90;;;;;;5005581;28;20498;-75
2022/01/30 10:11:32;;;;;;;36.22;6.60;;;6.80;99.90;;;;;;4991472;28;20045;-74
2022/01/30 10:14:14;;;;;;;27.90;7.68;;;6.70;99.90;;;;;;4970613;28;20103;-74
2022/01/30 10:16:48;;;;;;;37.40;6.15;;;6.70;99.90;;;;;;4989769;28;20034;-74
2022/01/30 10:19:17;;;;;;;30.70;7.63;;;6.70;99.90;;;;;;4989872;28;20033;-74
2022/01/30 10:21:44;;;;;;;33.65;6.45;;;7.10;99.90;;;;;;4976688;28;20103;-74
2022/01/30 10:24:27;;;;;;;27.23;7.63;;;7.10;99.90;;;;;;4991121;28;20121;-75
2022/01/30 10:27:02;;;;;;;38.20;7.60;;;7.10;99.90;;;;;;4993162;28;20046;-74
2022/01/30 10:29:30;;;;;;;31.27;7.18;;;7.10;99.90;;;;;;4985465;28;20490;-75
2022/01/30 10:32:00;;;;;;;32.08;7.75;;;6.80;99.90;;;;;;4992314;28;20093;-74
2022/01/30 10:34:29;;;;;;;31.73;7.10;;;6.50;99.90;;;;;;5006197;28;20045;-74
2022/01/30 10:37:22;;;;;;;31.00;7.13;;;7.20;99.90;;;;;;4975109;28;20069;-75
2022/01/30 10:40:08;;;;;;;34.22;6.50;;;6.90;99.90;;;;;;4998608;28;20072;-74
2022/01/30 10:42:40;;;;;;;36.60;7.22;;;6.90;99.90;;;;;;4987569;28;20529;-74
2022/01/30 10:45:13;;;;;;;44.00;7.15;;;7.00;99.90;;;;;;4991277;28;20041;-73
2022/01/30 10:47:41;;;;;;;34.75;6.70;;;7.60;99.90;;;;;;4981946;28;20033;-73
2022/01/30 10:50:11;;;;;;;32.63;6.70;;;7.10;99.90;;;;;;4991646;28;20115;-74
2022/01/30 10:52:59;;;;;;;25.92;6.60;;;7.30;99.90;;;;;;4990699;28;20136;-74
2022/01/30 10:55:35;;;;;;;40.15;7.20;;;7.30;99.90;;;;;;5006647;28;20125;-74
2022/01/30 10:58:01;;;;;;;35.50;7.30;;;7.30;99.90;;;;;;5006289;28;20033;-74
2022/01/30 11:00:43;;;;;;;25.50;6.20;;;7.50;99.90;;;;;;4988072;28;20077;-74
2022/01/30 11:03:10;;;;;;;36.40;7.63;;;7.30;99.90;;;;;;4987679;28;20040;-74
2022/01/30 11:05:58;;;;;;;28.52;7.05;;;7.40;99.90;;;;;;5007663;28;20045;-74
2022/01/30 11:08:26;;;;;;;36.55;7.20;;;7.10;99.90;;;;;;4992973;28;20442;-74
2022/01/30 11:11:14;;;;;;;49.90;7.47;;;7.10;99.90;;;;;;4975004;28;20135;-74
2022/01/30 11:14:16;;;;;;;36.47;8.25;;;7.10;99.90;;;;;;4988958;28;20234;-73
2022/01/30 11:19:19;;;;;;;34.85;8.48;;;7.30;99.90;;;;;;4972556;28;20039;-74
2022/01/30 11:21:53;;;;;;;41.50;8.23;;;7.30;99.90;;;;;;4989342;28;20048;-74
2022/01/30 11:24:20;;;;;;;30.15;6.70;;;7.40;99.90;;;;;;5003193;28;20520;-74
2022/01/30 11:26:47;;;;;;;29.30;7.32;;;7.40;99.90;;;;;;4990316;28;20140;-73
2022/01/30 11:29:15;;;;;;;43.75;9.05;;;7.30;99.90;;;;;;4989244;28;20049;-74
2022/01/30 11:31:42;;;;;;;30.52;7.90;;;7.30;99.90;;;;;;4989069;28;20056;-74
2022/01/30 11:34:08;;;;;;;35.22;7.30;;;7.30;99.90;;;;;;4990380;28;20042;-73
2022/01/30 11:36:37;;;;;;;35.10;7.70;;;7.40;99.90;;;;;;4982992;28;20057;-73
2022/01/30 11:39:20;;;;;;;30.73;7.02;;;7.90;99.90;;;;;;2144083;28;10023764;-73
2022/01/30 11:42:25;;;;;;;27.30;6.32;;;8.30;99.90;;;;;;3267984;28;10001351;-73
2022/01/30 11:45:09;;;;;;;29.67;5.90;;;7.90;99.90;;;;;;4983725;28;20402;-74
2022/01/30 11:47:51;;;;;;;27.65;6.07;;;7.90;99.90;;;;;;4965679;28;20034;-74
2022/01/30 11:50:31;;;;;;;35.92;7.40;;;8.20;99.90;;;;;;4991565;28;20045;-74
2022/01/30 11:53:09;;;;;;;30.73;7.60;;;8.10;99.90;;;;;;5005342;28;20180;-74
2022/01/30 11:55:56;;;;;;;27.98;5.75;;;8.30;99.90;;;;;;4990749;28;20046;-74
2022/01/30 11:58:40;;;;;;;36.22;5.95;;;8.40;99.90;;;;;;4983248;28;20521;-73
2022/01/30 12:01:14;;;;;;;31.65;8.13;;;8.50;99.90;;;;;;4987890;28;20491;-74
2022/01/30 12:03:59;;;;;;;30.73;6.35;;;8.60;99.90;;;;;;4985555;28;20053;-75
2022/01/30 12:06:25;;;;;;;34.25;6.50;;;8.40;99.90;;;;;;4982563;28;20082;-75
2022/01/30 12:08:56;;;;;;;31.58;7.53;;;8.40;99.90;;;;;;4962969;28;20072;-74
2022/01/30 12:11:37;;;;;;;33.25;7.25;;;8.60;99.90;;;;;;4983892;28;20044;-74
2022/01/30 12:14:17;;;;;;;29.17;7.30;;;9.20;99.90;;;;;;4981121;28;20042;-74
2022/01/30 12:16:43;;;;;;;25.20;5.72;;;;;;;;;;4990533;28;20042;-75
2022/01/30 12:19:11;;;;;;;26.85;6.88;;;9.10;99.90;;;;;;4988458;28;20096;-74
2022/01/30 12:21:38;;;;;;;28.40;6.32;;;9.40;99.90;;;;;;4997269;28;20038;-75
2022/01/30 12:24:24;;;;;;;26.77;6.97;;;9.70;99.90;;;;;;4988498;28;20041;-74
2022/01/30 12:26:52;;;;;;;27.67;6.40;;;9.50;99.90;;;;;;4982842;28;20042;-75
2022/01/30 12:29:35;;;;;;;26.38;6.50;;;9.50;99.90;;;;;;4985573;28;20056;-75
2022/01/30 12:32:20;;;;;;;23.02;5.78;;;9.30;99.90;;;;;;4987190;28;20066;-74
2022/01/30 12:34:46;;;;;;;18.92;5.55;;;9.30;99.90;;;;;;4985516;28;20077;-74
2022/01/30 12:37:19;;;;;;;23.13;6.45;;;8.90;99.90;;;;;;4945041;28;20064;-75
2022/01/30 12:39:59;;;;;;;28.85;7.00;;;8.90;99.90;;;;;;340528;28;10022853;-74
2022/01/30 12:42:27;;;;;;;35.58;7.03;;;9.00;99.90;;;;;;4979529;28;20904;-74
2022/01/30 12:44:59;;;;;;;31.00;5.88;;;9.30;99.90;;;;;;4982784;28;20184;-74
2022/01/30 12:47:25;;;;;;;31.42;7.72;;;9.10;99.90;;;;;;4983180;28;20034;-74
2022/01/30 12:49:53;;;;;;;24.50;6.32;;;9.60;99.90;;;;;;4982636;28;20041;-74
2022/01/30 12:54:50;;;;;;;29.23;7.30;;;9.20;99.90;;;;;;5002565;28;20096;-74
2022/01/30 12:57:19;;;;;;;32.80;6.75;;;8.40;99.90;;;;;;4972274;28;20129;-74
2022/01/30 12:59:59;;;;;;;29.98;7.15;;;8.30;99.90;;;;;;5006840;28;20088;-73
2022/01/30 13:02:28;;;;;;;35.67;7.18;;;8.10;99.90;;;;;;5003876;28;20049;-75
2022/01/30 13:05:04;;;;;;;33.28;6.63;;;7.90;99.90;;;;;;5002560;28;20120;-75
2022/01/30 13:07:29;;;;;;;32.05;6.75;;;7.80;99.90;;;;;;4987976;28;20482;-75
2022/01/30 13:10:10;;;;;;;36.97;7.43;;;8.30;99.90;;;;;;5006376;28;20041;-74
2022/01/30 13:12:36;;;;;;;29.70;5.45;;;7.80;99.90;;;;;;4990623;28;20033;-74
2022/01/30 13:15:20;;;;;;;30.75;6.03;;;7.70;99.90;;;;;;4989465;28;20046;-74
2022/01/30 13:17:46;;;;;;;22.25;5.50;;;7.60;99.90;;;;;;4988327;28;20343;-73
2022/01/30 13:20:12;;;;;;;27.33;6.57;;;7.40;99.90;;;;;;4986946;28;20046;-73
2022/01/30 13:22:42;;;;;;;25.70;5.45;;;7.40;99.90;;;;;;4987538;28;20781;-73
2022/01/30 13:25:19;;;;;;;28.52;6.00;;;7.30;99.90;;;;;;4992874;28;20131;-74
2022/01/30 13:27:47;;;;;;;28.17;6.70;;;7.30;99.90;;;;;;4987723;28;20038;-73
2022/01/30 13:30:30;;;;;;;23.63;5.45;;;7.30;99.90;;;;;;4990714;28;20045;-73
2022/01/30 13:32:56;;;;;;;26.23;5.45;;;7.20;99.90;;;;;;5006593;28;20573;-73
2022/01/30 13:35:24;;;;;;;32.40;6.35;;;7.60;99.90;;;;;;4991539;28;20141;-74
2022/01/30 13:37:53;;;;;;;32.90;6.45;;;7.40;99.90;;;;;;4985067;28;20051;-73
2022/01/30 13:40:22;;;;;;;25.83;6.40;;;7.50;99.90;;;;;;4990636;28;20116;-72
2022/01/30 13:43:11;;;;;;;33.58;6.57;;;7.70;99.90;;;;;;4986154;28;20088;-73
2022/01/30 13:48:08;;;;;;;25.00;6.05;;;7.20;99.90;;;;;;4989960;28;20049;-72
2022/01/30 13:50:40;;;;;;;31.50;7.07;;;7.90;99.90;;;;;;4988960;28;20038;-72
2022/01/30 13:53:12;;;;;;;34.58;7.13;;;6.90;99.90;;;;;;4972840;28;20038;-73
2022/01/30 13:56:11;;;;;;;38.58;7.05;;;7.00;99.90;;;;;;4972865;28;20034;-73
2022/01/30 13:58:37;;;;;;;27.88;5.82;;;7.00;99.90;;;;;;5000348;28;20029;-74
2022/01/30 14:01:10;;;;;;;26.95;6.43;;;7.00;99.90;;;;;;4992874;28;20050;-73